Terminal Aerodrome Forecast
Issued by NWS

Home | Current Version | Previous Version | Text Only | Print | Product List | Glossary On
Versions: 1 2 3 4 5 6 7 8 9 10 11 12 13 14 15 16 17 18 19 20 21 22
000
FTUS41 KBOX 200535
TAFBED
TAF
KBED 200535Z 2006/2106 03010KT P6SM VCSH OVC005
     FM201200 03014G24KT 4SM -SHRA BR OVC006
     FM201700 03016G25KT P6SM VCSH OVC010
     FM202200 02016G26KT 5SM BR OVC010
     FM210400 01011G24KT P6SM OVC020=

USA.gov is the U.S. government's official web portal to all federal, state and local government web resources and services.